Terminal Aerodrome Forecast
Issued by NWS Shreveport, LA

Current Version | Previous Version | Text Only | Print | Product List | Glossary On
Versions: 1 2 3 4 5 6 7 8 9 10 11 12 13 14 15 16 17 18 19 20 21 22
000
FTUS44 KSHV 210500 CCA
TAFSHV
TAF COR
KSHV 210556Z 2106/2206 00000KT 3SM BR SCT002
      TEMPO 2106/2108 1/4SM FG VV002
     FM210800 00000KT 1/4SM FG VV002
      TEMPO 2108/2112 2SM BR SCT002
     FM211200 00000KT 1/4SM FG VV001
      TEMPO 2114/2116 2SM BR SCT001
     FM211600 10004KT 6SM BR FEW007 SCT250
     FM211800 13005KT P6SM FEW035 SCT250
     FM220000 15005KT P6SM SCT250=

USA.gov is the U.S. government's official web portal to all federal, state and local government web resources and services.